createdAt,value
2023-05-08T00:03:24.121Z,4.13
2023-05-08T00:08:29.472Z,3.92
2023-05-08T00:13:33.599Z,3.97
2023-05-08T00:18:38.718Z,3.75
2023-05-08T00:23:44.010Z,4.57
2023-05-08T00:28:47.929Z,4.03
2023-05-08T00:33:51.975Z,3.63
2023-05-08T00:38:57.381Z,4.28
2023-05-08T00:44:01.318Z,4.22
2023-05-08T00:49:06.959Z,4.05
2023-05-08T00:54:12.841Z,4.40
2023-05-08T00:59:19.129Z,4.53
2023-05-08T01:04:26.683Z,4.70
2023-05-08T01:09:32.169Z,4.10
2023-05-08T01:14:49.472Z,3.95
2023-05-08T01:20:05.152Z,3.97
2023-05-08T01:25:49.503Z,3.28
2023-05-08T01:31:11.733Z,3.30
2023-05-08T01:36:25.152Z,3.13
2023-05-08T01:41:32.198Z,3.67
2023-05-08T01:46:36.380Z,3.90
2023-05-08T01:51:47.221Z,3.47
2023-05-08T01:56:55.464Z,3.90
2023-05-08T02:02:02.040Z,4.10
2023-05-08T02:07:08.617Z,3.67
2023-05-08T02:12:14.439Z,3.55
2023-05-08T02:17:19.184Z,3.85
2023-05-08T02:22:25.508Z,3.65
2023-05-08T02:27:31.555Z,3.75
2023-05-08T02:32:36.287Z,3.50
2023-05-08T02:37:43.800Z,3.97
2023-05-08T02:42:49.176Z,3.75
2023-05-08T02:48:05.516Z,3.83
2023-05-08T02:53:17.317Z,4.57
2023-05-08T02:58:26.376Z,3.80
2023-05-08T03:03:40.403Z,3.70
2023-05-08T03:08:49.634Z,3.40
2023-05-08T03:13:58.407Z,3.97
2023-05-08T03:19:06.807Z,3.42
2023-05-08T03:24:13.447Z,3.58
2023-05-08T03:29:19.788Z,3.85
2023-05-08T03:34:25.755Z,3.25
2023-05-08T03:39:31.448Z,3.63
2023-05-08T03:44:35.972Z,3.75
2023-05-08T03:49:40.551Z,3.40
2023-05-08T03:54:46.270Z,3.50
2023-05-08T03:59:58.360Z,4.20
2023-05-08T04:05:11.694Z,3.75
2023-05-08T04:10:25.744Z,3.38
2023-05-08T04:15:32.645Z,4.35
2023-05-08T04:20:41.684Z,3.65
2023-05-08T04:25:50.109Z,3.50
2023-05-08T04:30:55.161Z,3.42
2023-05-08T04:36:05.185Z,3.88
2023-05-08T04:41:15.065Z,3.33
2023-05-08T04:46:20.167Z,3.60
2023-05-08T04:51:24.306Z,3.67
2023-05-08T04:56:30.038Z,3.25
2023-05-08T05:01:34.381Z,4.07
2023-05-08T05:06:38.970Z,2.92
2023-05-08T05:11:44.767Z,3.50
2023-05-08T05:16:48.957Z,3.55
2023-05-08T05:21:53.051Z,3.60
2023-05-08T05:26:58.677Z,3.72
2023-05-08T05:32:03.307Z,4.20
2023-05-08T05:37:08.017Z,3.78
2023-05-08T05:42:14.091Z,3.83
2023-05-08T05:47:18.576Z,4.53
2023-05-08T05:52:23.183Z,3.92
2023-05-08T05:57:28.838Z,4.70
2023-05-08T06:02:34.019Z,4.88
2023-05-08T06:07:38.418Z,4.60
2023-05-08T06:12:44.095Z,4.70
2023-05-08T06:17:48.473Z,4.15
2023-05-08T06:22:52.465Z,3.40
2023-05-08T06:27:57.928Z,4.10
2023-05-08T06:33:02.035Z,3.78
2023-05-08T06:38:06.375Z,3.10
2023-05-08T06:43:12.504Z,3.25
2023-05-08T06:48:16.624Z,3.72
2023-05-08T06:53:20.498Z,2.80
2023-05-08T06:58:26.169Z,2.90
2023-05-08T07:03:30.184Z,3.22
2023-05-08T07:08:34.077Z,3.10
2023-05-08T07:13:39.645Z,3.38
2023-05-08T07:18:43.661Z,2.75
2023-05-08T07:23:47.980Z,2.97
2023-05-08T07:28:54.322Z,2.80
2023-05-08T07:33:58.255Z,2.70
2023-05-08T07:39:02.100Z,2.75
2023-05-08T07:44:07.399Z,2.70
2023-05-08T07:49:11.298Z,2.60
2023-05-08T07:54:15.304Z,2.90
2023-05-08T07:59:20.638Z,3.22
2023-05-08T08:04:24.838Z,3.25
2023-05-08T08:09:29.005Z,3.00
2023-05-08T08:14:34.466Z,3.00
2023-05-08T08:19:38.453Z,2.58
2023-05-08T08:24:42.389Z,3.30
2023-05-08T08:29:47.999Z,3.00
2023-05-08T08:34:52.077Z,3.33
2023-05-08T08:39:56.167Z,3.17
2023-05-08T08:45:01.955Z,3.75
2023-05-08T08:50:07.865Z,3.33
2023-05-08T08:55:16.679Z,4.43
2023-05-08T09:00:23.880Z,5.03
2023-05-08T09:05:28.035Z,3.92
2023-05-08T09:10:32.431Z,3.40
2023-05-08T09:15:38.123Z,3.92
2023-05-08T09:20:42.616Z,4.20
2023-05-08T09:25:47.632Z,3.38
2023-05-08T09:30:56.993Z,3.80
2023-05-08T09:36:01.146Z,3.95
2023-05-08T09:41:12.313Z,3.00
2023-05-08T09:46:25.859Z,3.40
2023-05-08T09:51:31.332Z,3.10
2023-05-08T09:56:36.672Z,2.78
2023-05-08T10:01:42.548Z,4.05
2023-05-08T10:12:00.999Z,3.13
2023-05-08T10:17:11.172Z,3.05
2023-05-08T10:22:20.206Z,3.22
2023-05-08T10:27:36.016Z,2.65
2023-05-08T10:32:45.607Z,2.65
2023-05-08T10:37:50.836Z,3.00
2023-05-08T10:42:55.498Z,3.47
2023-05-08T10:48:06.469Z,4.63
2023-05-08T10:53:17.776Z,3.13
2023-05-08T10:58:32.813Z,2.70
2023-05-08T11:03:42.771Z,2.50
2023-05-08T11:08:49.809Z,2.88
2023-05-08T11:13:57.320Z,3.17
2023-05-08T11:19:22.203Z,3.33
2023-05-08T11:24:36.015Z,3.33
2023-05-08T11:29:40.235Z,2.95
2023-05-08T11:34:50.041Z,3.13
2023-05-08T11:39:54.335Z,3.25
2023-05-08T11:45:05.515Z,2.88
2023-05-08T11:50:12.906Z,3.10
2023-05-08T11:55:19.651Z,3.17
2023-05-08T12:00:24.100Z,3.60
2023-05-08T12:05:29.880Z,2.60
2023-05-08T12:10:34.039Z,3.42
2023-05-08T12:15:39.998Z,3.20
2023-05-08T12:25:55.418Z,2.95
2023-05-08T12:31:00.001Z,3.00
2023-05-08T12:36:06.920Z,3.45
2023-05-08T12:41:11.309Z,2.60
2023-05-08T12:46:17.849Z,4.53
2023-05-08T12:51:31.164Z,3.10
2023-05-08T12:56:35.216Z,3.05
2023-05-08T13:01:39.397Z,2.85
2023-05-08T13:06:56.088Z,2.83
2023-05-08T13:12:00.883Z,2.92
2023-05-08T13:17:04.966Z,2.50
2023-05-08T13:22:10.521Z,2.83
2023-05-08T13:27:14.821Z,2.80
2023-05-08T13:32:19.080Z,3.00
2023-05-08T13:37:24.671Z,3.30
2023-05-08T13:47:33.451Z,3.15
2023-05-08T13:52:39.239Z,3.20
2023-05-08T14:02:48.828Z,3.05
2023-05-08T14:07:55.729Z,3.17
2023-05-08T14:12:59.843Z,2.58
2023-05-08T14:18:03.953Z,2.30
2023-05-08T14:23:09.507Z,2.80
2023-05-08T14:28:13.625Z,3.20
2023-05-08T14:33:19.324Z,2.75
2023-05-08T14:38:25.113Z,3.65
2023-05-08T14:43:29.312Z,2.85
2023-05-08T14:48:33.359Z,3.22
2023-05-08T14:53:39.050Z,3.53
2023-05-08T15:03:53.243Z,2.80
2023-05-08T15:08:59.273Z,3.60
2023-05-08T15:14:03.741Z,3.20
2023-05-08T15:19:09.641Z,3.45
2023-05-08T15:24:15.685Z,3.00
2023-05-08T15:29:23.822Z,3.72
2023-05-08T15:34:32.469Z,3.28
2023-05-08T15:39:39.409Z,3.33
2023-05-08T15:44:54.675Z,4.00
2023-05-08T15:49:59.409Z,3.28
2023-05-08T15:55:05.231Z,3.25
2023-05-08T16:05:14.145Z,3.85
2023-05-08T16:10:20.154Z,3.13
2023-05-08T16:15:24.343Z,3.33
2023-05-08T16:20:33.558Z,3.70
2023-05-08T16:25:41.229Z,3.53
2023-05-08T16:30:45.482Z,4.22
2023-05-08T16:35:50.686Z,4.57
2023-05-08T16:41:02.180Z,4.20
2023-05-08T16:46:07.517Z,5.07
2023-05-08T16:51:11.765Z,6.20
2023-05-08T16:56:17.131Z,5.18
2023-05-08T17:01:21.080Z,4.93
2023-05-08T17:06:27.816Z,5.07
2023-05-08T17:11:33.120Z,5.35
2023-05-08T17:16:38.848Z,5.18
2023-05-08T17:21:43.331Z,5.60
2023-05-08T17:26:50.532Z,4.47
2023-05-08T17:32:04.867Z,7.20
2023-05-08T17:37:09.006Z,5.38
2023-05-08T17:42:14.361Z,5.60
2023-05-08T17:47:18.289Z,5.13
2023-05-08T17:52:22.839Z,5.82
2023-05-08T17:57:28.314Z,10.48
2023-05-08T18:02:32.542Z,9.05
2023-05-08T18:07:36.983Z,8.32
2023-05-08T18:12:46.505Z,7.57
2023-05-08T18:17:54.759Z,7.72
2023-05-08T18:22:58.901Z,7.40
2023-05-08T18:28:04.170Z,9.65
2023-05-08T18:33:08.230Z,7.22
2023-05-08T18:38:12.314Z,8.57
2023-05-08T18:43:17.677Z,9.43
2023-05-08T18:48:21.856Z,10.02
2023-05-08T18:53:25.865Z,9.63
2023-05-08T18:58:31.315Z,9.98
2023-05-08T19:03:35.251Z,11.13
2023-05-08T19:08:39.147Z,10.57
2023-05-08T19:13:44.498Z,8.18
2023-05-08T19:18:48.389Z,9.25
2023-05-08T19:23:52.351Z,8.80
2023-05-08T19:28:57.612Z,8.63
2023-05-08T19:34:01.554Z,7.93
2023-05-08T19:39:05.573Z,8.88
2023-05-08T19:44:10.871Z,9.57
2023-05-08T19:49:17.354Z,10.20
2023-05-08T19:54:21.347Z,10.60
2023-05-08T19:59:26.797Z,12.00
2023-05-08T20:09:35.254Z,10.48
2023-05-08T20:14:40.753Z,9.75
2023-05-08T20:19:44.866Z,9.68
2023-05-08T20:24:48.754Z,14.68
2023-05-08T20:29:54.760Z,11.43
2023-05-08T20:34:58.851Z,54.55
2023-05-08T20:40:04.811Z,51.47
2023-05-08T20:50:16.473Z,19.30
2023-05-08T20:55:21.270Z,19.10
2023-05-08T21:00:26.982Z,24.77
2023-05-08T21:05:31.118Z,31.58
2023-05-08T21:10:35.027Z,93.82
2023-05-08T21:15:40.293Z,21.60
2023-05-08T21:20:49.650Z,14.50
2023-05-08T21:25:53.603Z,13.15
2023-05-08T21:30:58.878Z,13.95
2023-05-08T21:36:02.789Z,13.65
2023-05-08T21:41:07.884Z,12.77
2023-05-08T21:46:13.214Z,12.23
2023-05-08T21:51:17.609Z,13.80
2023-05-08T21:56:22.834Z,13.60
2023-05-08T22:01:28.211Z,13.50
2023-05-08T22:06:33.071Z,13.13
2023-05-08T22:11:37.051Z,12.48
2023-05-08T22:16:42.739Z,13.27
2023-05-08T22:21:46.944Z,14.77
2023-05-08T22:26:51.210Z,12.57
2023-05-08T22:31:56.977Z,13.63
2023-05-08T22:37:01.065Z,13.30
2023-05-08T22:42:05.511Z,17.50
2023-05-08T22:47:11.757Z,22.92
2023-05-08T22:52:17.114Z,24.30
2023-05-08T22:57:21.358Z,21.63
2023-05-08T23:02:32.101Z,19.13
2023-05-08T23:07:36.453Z,17.35
2023-05-08T23:12:40.542Z,18.10
2023-05-08T23:17:46.218Z,17.23
2023-05-08T23:22:50.228Z,16.58
2023-05-08T23:27:54.119Z,17.55
2023-05-08T23:32:59.398Z,16.60
2023-05-08T23:38:03.435Z,16.23
2023-05-08T23:43:07.418Z,16.27
2023-05-08T23:48:12.861Z,16.42
2023-05-08T23:53:16.696Z,15.82
2023-05-08T23:58:20.961Z,15.73
